Wichita, KS (67201)

12:55 AM CDT on July 25, 2016 (GMT -0500)
Indian Hills | | Change Station

Elev 1329 ft 37.72 °N, 97.37 °W | Updated 10 minutes ago

Thunderstorm
Thunderstorm
84.0 °F
Feels Like 94 °F
N
0.0
Wind Variable Wind from SSW

Today
High -- | Low -- °F
--% Chance of Precip.
Yesterday
High -- | Low -- °F
Precip. -- in
Pressure 29.91 in
Visibility 10.0 miles
Clouds Few 9000 ft
Mostly Cloudy 12000 ft
Mostly Cloudy 20000 ft
Heat Index 94 °F
Dew Point 77 °F
Humidity 80%
Rainfall 0.00 in
Snow Depth Not available.
6:27 AM 8:43 PM
Waning Gibbous, 69% visible
METAR KICT 250553Z 00000KT 10SM TS FEW090CB BKN120 BKN200 30/22 A2997 RMK AO2 TSB15 SLP128 OCNL LTGICCC SW-W TS SW-W MOV SE T03000217 10367 20294 403830244 50009
Pressure 29.91 in
Visibility 10.0 miles
Clouds Few 9000 ft
Mostly Cloudy 12000 ft
Mostly Cloudy 20000 ft
Heat Index 94 °F
Dew Point 77 °F
Humidity 80%
Rainfall 0.00 in
Snow Depth Not available.
6:27 AM 8:43 PM
Waning Gibbous, 69% visible
METAR KICT 250553Z 00000KT 10SM TS FEW090CB BKN120 BKN200 30/22 A2997 RMK AO2 TSB15 SLP128 OCNL LTGICCC SW-W TS SW-W MOV SE T03000217 10367 20294 403830244 50009

10-Day Weather Forecast

Almanac

Astronomy

Jul. 25, 2016 Rise Set
Actual Time
Civil Twilight
Nautical Twilight
Astronomical Twilight
Moon
Length of Visible Light
Length of Day
Tomorrow will be .
, % of the Moon is Illuminated

Today's Extremes

State Highs State Lows

Community

WunderPhotos

Upload Photos

1,927,274 photos uploaded!

WunderBlog® & News

Nearby

Air Quality

  Air Quality AQ Index Pollutant
Not available.

Snow Depth

Station Depth Elevation

Earthquake Activity

City Distance Mag. Time & Date
Minimum magnitude displayed is 2.5.

Coastal Water Temperatures

Place Temperature

Stations

Nearby Weather Stations

Station Location Temp. Windchill Dew Point Humidity Wind Precip. Elev Updated Type
                   

Watches & Warnings

There are currently no watches in effect.